Time;durP1;ratioP1;P1;durP2;ratioP2;P2;SDS_P1;SDS_P2;PMS_P1;PMS_P2;Temp;Humidity;BMP_temperature;BMP_pressure;BME280_temperature;BME280_humidity;BME280_pressure;Samples;Min_cycle;Max_cycle;Signal;HPM_P1;HPM_P2
2022/08/30 00:01:12;;;;;;;3.00;2.80;;;24.80;97.20;;;;;;4949839;28;20459;-81
2022/08/30 00:03:44;;;;;;;5.60;3.10;;;24.80;97.00;;;;;;4944298;28;20528;-81
2022/08/30 00:06:17;;;;;;;7.23;3.90;;;24.80;97.60;;;;;;4952181;28;20491;-81
2022/08/30 00:08:47;;;;;;;4.80;2.60;;;24.80;97.30;;;;;;4952469;28;20460;-81
2022/08/30 00:11:18;;;;;;;4.13;3.80;;;24.80;97.20;;;;;;4947898;28;20971;-81
2022/08/30 00:13:48;;;;;;;3.77;3.47;;;24.80;98.00;;;;;;4946117;28;21215;-80
2022/08/30 00:16:17;;;;;;;3.23;2.63;;;24.80;97.00;;;;;;4948169;28;20808;-81
2022/08/30 00:18:46;;;;;;;4.20;3.43;;;24.80;97.60;;;;;;4944124;28;20887;-81
2022/08/30 00:21:16;;;;;;;3.03;2.83;;;24.80;98.90;;;;;;4953805;28;20517;-81
2022/08/30 00:23:44;;;;;;;4.03;3.40;;;24.80;98.70;;;;;;4946941;28;20574;-82
2022/08/30 00:26:13;;;;;;;7.87;3.77;;;24.80;98.70;;;;;;4951212;28;20495;-80
2022/08/30 00:28:41;;;;;;;4.20;3.80;;;24.80;98.40;;;;;;4940795;28;20464;-82
2022/08/30 00:31:09;;;;;;;3.20;3.00;;;24.80;98.50;;;;;;4952922;28;20742;-84
2022/08/30 00:33:42;;;;;;;3.50;3.20;;;24.80;99.50;;;;;;4948192;28;20456;-82
2022/08/30 00:36:10;;;;;;;3.50;3.30;;;24.70;99.90;;;;;;4955324;28;20490;-81
2022/08/30 00:38:39;;;;;;;4.20;3.80;;;24.70;99.90;;;;;;4942511;28;20976;-82
2022/08/30 00:41:08;;;;;;;5.20;3.40;;;24.70;99.90;;;;;;4956372;28;20525;-81
2022/08/30 00:43:36;;;;;;;3.30;3.00;;;24.70;99.80;;;;;;4950966;28;20457;-82
2022/08/30 00:46:07;;;;;;;4.00;3.60;;;24.70;99.90;;;;;;4944273;28;20487;-80
2022/08/30 00:48:39;;;;;;;4.00;3.43;;;24.70;99.20;;;;;;4945573;28;20467;-81
2022/08/30 00:51:10;;;;;;;4.17;3.60;;;24.60;98.90;;;;;;4947895;28;20477;-81
2022/08/30 00:53:42;;;;;;;4.40;4.00;;;24.60;99.40;;;;;;4945081;28;20524;-80
2022/08/30 00:56:11;;;;;;;3.63;3.20;;;24.50;99.90;;;;;;4953474;28;20483;-81
2022/08/30 00:58:44;;;;;;;3.17;2.90;;;24.50;98.60;;;;;;4948850;28;21002;-80
2022/08/30 01:01:13;;;;;;;3.57;3.27;;;24.40;98.00;;;;;;4951872;28;20466;-82
2022/08/30 01:03:43;;;;;;;3.50;3.20;;;24.40;98.10;;;;;;4941760;28;20459;-80
2022/08/30 01:06:12;;;;;;;4.30;3.73;;;24.40;98.10;;;;;;4950660;28;20495;-81
2022/08/30 01:08:42;;;;;;;4.50;3.47;;;24.30;97.80;;;;;;4952387;28;20474;-81
2022/08/30 01:11:12;;;;;;;4.27;3.70;;;24.20;98.10;;;;;;4955087;28;20964;-81
2022/08/30 01:13:41;;;;;;;3.50;3.20;;;24.30;98.30;;;;;;4943506;28;20559;-82
2022/08/30 01:16:10;;;;;;;3.50;3.10;;;24.20;98.40;;;;;;4947358;28;20968;-81
2022/08/30 01:18:39;;;;;;;3.70;3.40;;;24.10;97.80;;;;;;4949095;28;20467;-81
2022/08/30 01:21:15;;;;;;;3.03;2.83;;;24.10;97.60;;;;;;4953982;28;20480;-82
2022/08/30 01:23:48;;;;;;;3.23;2.93;;;24.00;96.80;;;;;;4948048;28;20472;-82
2022/08/30 01:26:17;;;;;;;4.80;3.63;;;24.00;97.20;;;;;;4947221;28;20482;-81
2022/08/30 01:28:53;;;;;;;3.90;3.57;;;24.00;98.00;;;;;;4952303;28;20976;-81
2022/08/30 01:31:21;;;;;;;3.37;3.10;;;23.90;97.20;;;;;;4947550;28;20471;-81
2022/08/30 01:33:50;;;;;;;3.30;3.00;;;23.90;97.90;;;;;;4948958;28;20969;-80
2022/08/30 01:36:19;;;;;;;3.37;2.90;;;23.90;97.70;;;;;;4945709;28;20499;-82
2022/08/30 01:38:52;;;;;;;3.50;3.13;;;23.80;97.50;;;;;;4946456;28;20469;-81
2022/08/30 01:41:22;;;;;;;3.87;3.27;;;23.80;96.90;;;;;;4942769;28;20476;-82
2022/08/30 01:43:52;;;;;;;4.03;3.33;;;23.70;97.50;;;;;;4951224;28;20452;-81
2022/08/30 01:46:23;;;;;;;3.70;3.40;;;23.70;97.10;;;;;;4940805;28;20522;-81
2022/08/30 01:48:52;;;;;;;3.47;3.17;;;23.70;97.20;;;;;;4944168;28;20467;-81
2022/08/30 01:51:23;;;;;;;5.27;4.20;;;23.60;97.10;;;;;;4948903;28;20495;-81
2022/08/30 01:53:52;;;;;;;4.13;3.73;;;23.60;97.30;;;;;;4949447;28;20511;-81
2022/08/30 01:56:21;;;;;;;5.67;3.67;;;23.60;97.80;;;;;;4943113;28;20492;-81
2022/08/30 01:58:50;;;;;;;3.90;3.60;;;23.60;97.30;;;;;;4943069;28;20482;-81
2022/08/30 02:01:21;;;;;;;3.80;3.50;;;23.60;98.30;;;;;;4946771;28;20467;-82
2022/08/30 02:03:50;;;;;;;4.63;4.23;;;23.60;97.90;;;;;;4947619;28;20466;-81
2022/08/30 02:06:19;;;;;;;4.10;3.20;;;23.60;99.20;;;;;;4946061;28;20800;-80
2022/08/30 02:08:48;;;;;;;5.90;3.77;;;23.50;97.40;;;;;;4945721;28;20463;-78
2022/08/30 02:11:18;;;;;;;4.50;4.10;;;23.50;99.90;;;;;;4943812;28;20451;-83
2022/08/30 02:13:47;;;;;;;4.03;3.73;;;23.50;99.10;;;;;;4945999;28;20444;-80
2022/08/30 02:16:21;;;;;;;3.83;3.50;;;23.50;98.10;;;;;;4944438;28;20486;-81
2022/08/30 02:18:51;;;;;;;4.60;3.77;;;23.40;97.80;;;;;;4947011;28;20981;-81
2022/08/30 02:21:19;;;;;;;5.50;4.20;;;23.40;97.70;;;;;;4948160;28;20482;-80
2022/08/30 02:23:47;;;;;;;4.63;4.13;;;23.30;98.10;;;;;;4952445;28;20470;-82
2022/08/30 02:26:18;;;;;;;4.40;4.00;;;23.30;99.90;;;;;;4954788;28;20816;-82
2022/08/30 02:28:47;;;;;;;4.00;3.40;;;23.30;99.20;;;;;;4948485;28;20471;-82
2022/08/30 02:31:17;;;;;;;3.47;3.20;;;23.20;98.70;;;;;;4954355;28;20934;-81
2022/08/30 02:33:48;;;;;;;4.17;3.77;;;23.20;99.50;;;;;;4946963;28;20457;-81
2022/08/30 02:36:19;;;;;;;4.63;4.13;;;23.20;99.20;;;;;;4949811;28;21052;-82
2022/08/30 02:38:47;;;;;;;3.97;3.60;;;23.20;99.50;;;;;;4949755;28;20454;-81
2022/08/30 02:41:16;;;;;;;3.40;3.10;;;23.10;99.90;;;;;;4960043;28;20466;-81
2022/08/30 02:43:46;;;;;;;4.47;3.40;;;23.10;99.90;;;;;;4945666;28;20463;-81
2022/08/30 02:46:14;;;;;;;3.97;3.37;;;23.10;99.90;;;;;;4949279;28;20530;-81
2022/08/30 02:48:42;;;;;;;4.10;3.80;;;23.10;99.90;;;;;;4951932;28;20536;-81
2022/08/30 02:51:14;;;;;;;3.97;3.60;;;23.10;99.90;;;;;;4951264;28;20459;-80
2022/08/30 02:53:43;;;;;;;4.23;3.43;;;23.10;99.90;;;;;;4946293;28;20455;-80
2022/08/30 02:56:13;;;;;;;5.27;3.33;;;23.10;99.90;;;;;;4950935;28;20494;-81
2022/08/30 02:58:41;;;;;;;6.43;3.83;;;23.00;99.90;;;;;;4943623;28;20464;-80
2022/08/30 03:01:12;;;;;;;4.17;3.47;;;23.00;99.90;;;;;;4948489;28;20472;-81
2022/08/30 03:03:42;;;;;;;6.50;4.17;;;23.00;99.90;;;;;;4952446;28;20517;-81
2022/08/30 03:06:11;;;;;;;4.00;3.70;;;23.00;99.90;;;;;;4951715;28;20490;-81
2022/08/30 03:08:39;;;;;;;6.57;2.80;;;23.00;99.90;;;;;;4956559;28;20907;-82
2022/08/30 03:11:07;;;;;;;5.30;4.20;;;23.00;99.90;;;;;;4954155;28;20457;-81
2022/08/30 03:13:36;;;;;;;3.70;3.30;;;23.00;99.90;;;;;;4943386;28;20472;-83
2022/08/30 03:16:04;;;;;;;4.07;3.70;;;22.90;99.90;;;;;;4949066;28;20502;-81
2022/08/30 03:18:34;;;;;;;5.60;3.40;;;22.90;99.90;;;;;;4949355;28;20518;-81
2022/08/30 03:21:03;;;;;;;4.27;3.87;;;22.90;99.90;;;;;;4952614;28;20455;-82
2022/08/30 03:23:31;;;;;;;4.60;4.20;;;22.90;99.90;;;;;;4949083;28;20458;-82
2022/08/30 03:25:59;;;;;;;5.53;4.17;;;22.90;99.90;;;;;;4954024;28;20549;-81
2022/08/30 03:28:28;;;;;;;4.40;4.10;;;22.90;99.90;;;;;;4945917;28;20462;-81
2022/08/30 03:30:56;;;;;;;3.80;3.50;;;22.80;99.90;;;;;;4945003;28;20461;-81
2022/08/30 03:33:24;;;;;;;5.13;4.47;;;22.80;99.90;;;;;;4946271;28;20497;-81
2022/08/30 03:35:55;;;;;;;3.87;3.47;;;22.80;99.90;;;;;;4966148;28;20473;-79
2022/08/30 03:38:24;;;;;;;4.50;3.93;;;22.70;99.90;;;;;;4951978;28;20449;-81
2022/08/30 03:40:52;;;;;;;4.03;3.60;;;22.70;99.90;;;;;;4950298;28;20498;-81
2022/08/30 03:43:20;;;;;;;4.57;4.17;;;22.70;99.90;;;;;;4945540;28;20513;-81
2022/08/30 03:45:48;;;;;;;4.60;3.90;;;22.70;99.90;;;;;;4953929;28;20478;-81
2022/08/30 03:48:16;;;;;;;5.13;3.50;;;22.60;99.90;;;;;;4949166;28;21014;-81
2022/08/30 03:50:47;;;;;;;4.13;3.73;;;22.70;99.90;;;;;;4943730;28;20502;-81
2022/08/30 03:53:17;;;;;;;5.47;4.10;;;22.60;99.90;;;;;;4953182;28;20462;-81
2022/08/30 03:55:45;;;;;;;4.10;3.77;;;22.60;99.90;;;;;;4947117;28;20496;-80
2022/08/30 03:58:16;;;;;;;4.53;4.03;;;22.60;99.90;;;;;;4951736;28;20463;-81
2022/08/30 04:00:46;;;;;;;5.67;5.20;;;22.60;99.90;;;;;;4944697;28;20557;-80
2022/08/30 04:03:14;;;;;;;4.27;3.87;;;22.60;99.90;;;;;;4948904;28;20467;-80
2022/08/30 04:05:44;;;;;;;5.03;4.53;;;22.60;99.90;;;;;;4947653;28;21154;-81
2022/08/30 04:08:12;;;;;;;5.50;3.87;;;22.50;99.90;;;;;;4954421;28;20529;-80
2022/08/30 04:10:42;;;;;;;4.60;4.13;;;22.50;99.90;;;;;;4950763;28;20472;-81
2022/08/30 04:13:10;;;;;;;4.93;4.10;;;22.50;99.90;;;;;;4948218;28;20466;-80
2022/08/30 04:15:38;;;;;;;6.53;4.40;;;22.50;99.90;;;;;;4945667;28;21039;-82
2022/08/30 04:18:07;;;;;;;5.27;4.70;;;22.40;99.90;;;;;;4945000;28;20466;-80
2022/08/30 04:20:35;;;;;;;4.33;3.70;;;22.40;99.90;;;;;;4953943;28;20485;-82
2022/08/30 04:23:05;;;;;;;3.93;3.63;;;22.40;99.90;;;;;;4949798;28;20470;-81
2022/08/30 04:25:34;;;;;;;4.07;3.53;;;22.30;99.90;;;;;;4954756;28;20493;-82
2022/08/30 04:28:05;;;;;;;4.13;3.73;;;22.30;99.90;;;;;;4947146;28;20935;-82
2022/08/30 04:30:33;;;;;;;4.70;3.83;;;22.40;99.90;;;;;;4944288;28;20454;-82
2022/08/30 04:33:01;;;;;;;3.83;3.40;;;22.30;99.90;;;;;;4950421;28;20453;-80
2022/08/30 04:35:29;;;;;;;4.10;3.67;;;22.30;99.90;;;;;;4946320;28;20469;-82
2022/08/30 04:37:58;;;;;;;4.83;4.43;;;22.30;99.90;;;;;;4942913;28;20504;-81
2022/08/30 04:40:26;;;;;;;4.53;4.00;;;22.30;99.90;;;;;;4944381;28;20465;-82
2022/08/30 04:42:55;;;;;;;4.43;3.60;;;22.20;99.90;;;;;;4946880;28;20491;-81
2022/08/30 04:45:26;;;;;;;4.53;3.90;;;22.20;99.90;;;;;;4947647;28;20492;-84
2022/08/30 04:47:55;;;;;;;5.53;3.80;;;22.20;99.90;;;;;;4952112;28;20452;-82
2022/08/30 04:50:24;;;;;;;5.20;4.70;;;22.20;99.90;;;;;;4946293;28;20495;-81
2022/08/30 04:52:52;;;;;;;4.73;4.30;;;22.20;99.90;;;;;;4948769;28;20459;-81
2022/08/30 04:55:23;;;;;;;4.90;4.50;;;22.20;99.90;;;;;;4946641;28;20486;-82
2022/08/30 04:57:51;;;;;;;4.67;4.33;;;22.20;99.90;;;;;;4946979;28;20488;-80
2022/08/30 05:00:20;;;;;;;4.40;4.00;;;22.20;99.90;;;;;;4944950;28;20456;-82
2022/08/30 05:02:50;;;;;;;5.90;4.60;;;22.20;99.90;;;;;;4955197;28;20512;-81
2022/08/30 05:08:05;;;;;;;5.03;4.60;;;22.20;99.90;;;;;;4951048;28;20518;-81
2022/08/30 05:10:33;;;;;;;4.30;3.90;;;22.20;99.90;;;;;;4946272;28;20475;-81
2022/08/30 05:13:02;;;;;;;4.10;3.70;;;22.20;99.90;;;;;;4952993;28;20809;-81
2022/08/30 05:15:30;;;;;;;4.90;4.43;;;22.30;99.90;;;;;;4948333;28;20535;-81
2022/08/30 05:18:00;;;;;;;5.80;4.57;;;22.20;99.90;;;;;;4945877;28;20514;-81
2022/08/30 05:20:28;;;;;;;5.00;4.13;;;22.30;99.90;;;;;;4949368;28;20504;-82
2022/08/30 05:22:56;;;;;;;4.27;3.83;;;22.30;99.90;;;;;;4942346;28;20897;-82
2022/08/30 05:25:27;;;;;;;5.97;4.60;;;22.30;99.90;;;;;;4941441;28;20473;-80
2022/08/30 05:27:55;;;;;;;7.10;4.93;;;22.30;99.90;;;;;;4943937;28;20460;-81
2022/08/30 05:30:24;;;;;;;5.47;5.07;;;22.30;99.90;;;;;;4946982;28;20460;-78
2022/08/30 05:32:53;;;;;;;5.00;4.27;;;22.40;99.90;;;;;;4945334;28;20254;-81
2022/08/30 05:35:23;;;;;;;4.93;4.43;;;22.40;99.90;;;;;;4943842;28;20991;-80
2022/08/30 05:37:53;;;;;;;5.83;3.87;;;22.40;99.90;;;;;;4951581;28;20479;-81
2022/08/30 05:40:22;;;;;;;7.37;4.73;;;22.40;99.90;;;;;;4945384;28;20523;-82
2022/08/30 05:42:50;;;;;;;3.90;3.50;;;22.50;99.90;;;;;;4956546;28;20469;-84
2022/08/30 05:45:19;;;;;;;4.83;3.90;;;22.50;99.90;;;;;;4946066;28;20483;-81
2022/08/30 05:47:47;;;;;;;3.93;3.43;;;22.40;99.90;;;;;;4959586;28;20467;-81
2022/08/30 05:50:15;;;;;;;5.73;5.17;;;22.50;99.90;;;;;;4946440;28;20459;-82
2022/08/30 05:52:45;;;;;;;7.40;5.53;;;22.50;99.90;;;;;;4961084;28;20547;-81
2022/08/30 05:55:13;;;;;;;5.50;4.40;;;22.50;99.90;;;;;;4956099;28;20498;-81
2022/08/30 05:57:41;;;;;;;5.00;4.50;;;22.50;99.90;;;;;;4945622;28;20483;-81
2022/08/30 06:00:13;;;;;;;4.93;4.40;;;22.60;99.90;;;;;;4951113;28;20469;-74
2022/08/30 06:02:42;;;;;;;6.13;4.30;;;22.50;99.90;;;;;;4947814;28;20479;-75
2022/08/30 06:05:11;;;;;;;6.77;4.37;;;22.50;99.90;;;;;;4942290;28;20494;-75
2022/08/30 06:07:42;;;;;;;4.90;4.33;;;22.50;99.90;;;;;;4944790;28;20452;-77
2022/08/30 06:10:12;;;;;;;5.70;5.00;;;22.40;99.90;;;;;;4949703;28;20839;-76
2022/08/30 06:12:42;;;;;;;4.70;4.30;;;22.40;99.90;;;;;;4943469;28;20498;-75
2022/08/30 06:15:11;;;;;;;5.33;4.70;;;22.60;99.90;;;;;;4946615;28;20485;-75
2022/08/30 06:17:39;;;;;;;6.00;5.40;;;22.60;99.90;;;;;;4939290;28;20470;-73
2022/08/30 06:20:09;;;;;;;5.50;4.37;;;22.50;99.90;;;;;;4947375;28;20456;-75
2022/08/30 06:22:38;;;;;;;5.53;4.50;;;22.60;99.90;;;;;;4942427;28;20974;-75
2022/08/30 06:25:07;;;;;;;5.83;4.70;;;22.70;99.90;;;;;;4956126;28;21020;-76
2022/08/30 06:27:36;;;;;;;6.23;4.30;;;22.80;99.90;;;;;;4955224;28;20526;-76
2022/08/30 06:30:07;;;;;;;4.80;4.40;;;22.80;99.90;;;;;;4941596;28;20462;-77
2022/08/30 06:32:35;;;;;;;6.87;5.50;;;22.80;99.90;;;;;;4958157;28;20490;-76
2022/08/30 06:35:04;;;;;;;5.63;5.03;;;22.90;99.90;;;;;;4954739;28;20479;-76
2022/08/30 06:37:34;;;;;;;6.03;4.50;;;23.00;99.90;;;;;;4942440;28;20475;-75
2022/08/30 06:40:03;;;;;;;5.63;5.00;;;23.10;99.90;;;;;;4941188;28;20453;-74
2022/08/30 06:42:32;;;;;;;5.80;4.73;;;23.30;99.90;;;;;;4946418;28;20524;-75
2022/08/30 06:45:03;;;;;;;5.80;5.30;;;23.50;99.90;;;;;;4946106;28;20483;-74
2022/08/30 06:47:39;;;;;;;6.17;4.73;;;23.60;99.90;;;;;;4946250;28;20823;-75
2022/08/30 06:50:08;;;;;;;5.13;4.60;;;23.60;99.90;;;;;;4942554;28;20471;-76
2022/08/30 06:52:39;;;;;;;7.20;5.00;;;23.70;99.90;;;;;;4944851;28;20466;-75
2022/08/30 06:55:08;;;;;;;6.50;5.47;;;23.70;99.90;;;;;;4946209;28;20483;-76
2022/08/30 06:57:36;;;;;;;7.63;4.23;;;23.80;99.90;;;;;;4940951;28;20511;-78
2022/08/30 07:00:08;;;;;;;6.73;4.20;;;23.80;99.90;;;;;;4944222;28;20459;-76
2022/08/30 07:02:36;;;;;;;5.10;4.27;;;23.90;99.90;;;;;;4942588;28;20519;-76
2022/08/30 07:05:06;;;;;;;5.10;4.60;;;24.00;99.90;;;;;;4943526;28;20490;-76
2022/08/30 07:07:35;;;;;;;4.70;4.30;;;24.10;99.90;;;;;;4936418;28;20547;-77
2022/08/30 07:10:04;;;;;;;5.10;4.60;;;24.10;99.90;;;;;;4950101;28;20466;-75
2022/08/30 07:12:32;;;;;;;5.53;5.00;;;24.20;99.90;;;;;;4944297;28;20471;-77
2022/08/30 07:15:02;;;;;;;4.23;3.70;;;24.20;99.90;;;;;;4946774;28;20479;-77
2022/08/30 07:20:20;;;;;;;5.40;4.50;;;24.40;99.90;;;;;;4946365;28;22068;-76
2022/08/30 07:22:49;;;;;;;5.37;4.87;;;24.40;99.90;;;;;;4952183;28;20701;-74
2022/08/30 07:25:17;;;;;;;4.10;3.80;;;24.50;99.90;;;;;;4951760;28;20537;-75
2022/08/30 07:27:46;;;;;;;3.97;3.67;;;24.50;99.90;;;;;;4944948;28;20550;-76
2022/08/30 07:30:15;;;;;;;6.00;4.33;;;24.70;99.90;;;;;;4948169;28;20459;-76
2022/08/30 07:32:44;;;;;;;4.67;4.27;;;24.80;99.90;;;;;;4948065;28;20479;-75
2022/08/30 07:35:12;;;;;;;5.00;4.50;;;24.80;99.90;;;;;;4954096;28;20479;-75
2022/08/30 07:37:40;;;;;;;4.77;4.00;;;24.90;99.90;;;;;;4942083;28;20484;-77
2022/08/30 07:40:10;;;;;;;6.70;5.00;;;24.90;99.90;;;;;;4941381;28;20460;-74
2022/08/30 07:42:39;;;;;;;7.00;5.20;;;25.00;99.90;;;;;;4946426;28;20551;-78
2022/08/30 07:45:09;;;;;;;4.53;4.10;;;25.00;99.90;;;;;;4946603;28;21114;-77
2022/08/30 07:47:37;;;;;;;4.90;4.30;;;25.00;99.90;;;;;;4944913;28;20461;-77
2022/08/30 07:50:08;;;;;;;5.20;4.53;;;25.10;99.90;;;;;;4958388;28;21083;-77
2022/08/30 07:52:36;;;;;;;4.90;4.40;;;25.20;99.90;;;;;;4942403;28;21012;-76
2022/08/30 07:55:09;;;;;;;6.00;4.30;;;25.20;99.90;;;;;;4939411;28;20856;-78
2022/08/30 07:57:37;;;;;;;7.00;5.10;;;25.20;99.90;;;;;;4943967;28;20455;-75
2022/08/30 08:00:10;;;;;;;3.63;3.30;;;25.20;99.90;;;;;;4948164;28;20452;-76
2022/08/30 08:02:39;;;;;;;5.30;4.80;;;25.30;99.90;;;;;;4939798;28;20919;-76
2022/08/30 08:05:10;;;;;;;4.50;4.13;;;25.30;99.90;;;;;;4939199;28;20476;-77
2022/08/30 08:07:44;;;;;;;4.90;3.93;;;25.40;99.90;;;;;;4939039;28;20448;-73
2022/08/30 08:10:12;;;;;;;3.80;3.50;;;25.40;99.90;;;;;;4946227;28;20463;-77
2022/08/30 08:12:40;;;;;;;3.80;3.40;;;25.40;99.90;;;;;;4943932;28;21360;-76
2022/08/30 08:15:09;;;;;;;3.90;3.70;;;25.50;99.90;;;;;;4948588;28;20479;-76
2022/08/30 08:17:37;;;;;;;4.10;3.80;;;25.50;99.90;;;;;;4942813;28;20512;-75
2022/08/30 08:20:07;;;;;;;5.60;4.23;;;25.60;99.90;;;;;;4954689;28;20460;-77
2022/08/30 08:22:36;;;;;;;3.90;3.60;;;25.60;99.90;;;;;;4946785;28;20475;-76
2022/08/30 08:25:07;;;;;;;3.73;3.43;;;25.60;99.90;;;;;;4943177;28;20546;-76
2022/08/30 08:27:36;;;;;;;4.13;3.83;;;25.70;99.90;;;;;;4946578;28;20461;-77
2022/08/30 08:30:05;;;;;;;4.70;4.30;;;25.70;99.90;;;;;;4947230;28;20471;-76
2022/08/30 08:32:33;;;;;;;4.00;3.60;;;25.20;99.90;;;;;;4948784;28;20459;-77
2022/08/30 08:35:01;;;;;;;3.83;3.53;;;25.80;99.90;;;;;;4952258;28;20847;-75
2022/08/30 08:37:29;;;;;;;4.33;4.03;;;25.80;99.90;;;;;;4948722;28;20913;-76
2022/08/30 08:39:58;;;;;;;4.30;3.80;;;25.80;99.90;;;;;;4942946;28;20491;-78
2022/08/30 08:42:36;;;;;;;3.97;3.40;;;25.80;99.90;;;;;;4941555;28;20453;-74
2022/08/30 08:45:10;;;;;;;4.60;3.80;;;25.80;99.90;;;;;;4944229;28;20535;-77
2022/08/30 08:47:41;;;;;;;5.57;3.90;;;25.90;99.90;;;;;;4942034;28;20504;-78
2022/08/30 08:50:13;;;;;;;4.60;3.70;;;26.00;99.90;;;;;;4947991;28;20483;-77
2022/08/30 08:55:49;;;;;;;4.27;3.87;;;26.00;99.90;;;;;;4951615;28;20487;-77
2022/08/30 08:58:23;;;;;;;6.73;4.30;;;26.10;99.90;;;;;;4942754;28;20466;-77
2022/08/30 09:00:51;;;;;;;4.07;3.67;;;26.10;99.90;;;;;;4947803;28;20475;-77
2022/08/30 09:03:22;;;;;;;3.97;3.67;;;26.20;99.90;;;;;;4949806;28;20460;-76
2022/08/30 09:05:52;;;;;;;4.10;3.80;;;26.20;99.90;;;;;;4941691;28;20547;-75
2022/08/30 09:08:22;;;;;;;4.07;3.77;;;26.30;99.90;;;;;;4942251;28;20515;-76
2022/08/30 09:10:55;;;;;;;4.53;4.13;;;26.40;99.90;;;;;;4939948;28;21332;-76
2022/08/30 09:13:25;;;;;;;5.83;3.80;;;26.40;99.90;;;;;;4943282;28;20492;-78
2022/08/30 09:15:56;;;;;;;3.40;3.20;;;26.40;99.90;;;;;;4942440;28;21050;-76
2022/08/30 09:18:50;;;;;;;4.27;3.97;;;26.40;99.90;;;;;;4946314;28;20555;-76
2022/08/30 09:21:24;;;;;;;3.20;2.97;;;26.40;99.90;;;;;;4932139;28;20882;-76
2022/08/30 09:23:58;;;;;;;6.07;4.40;;;26.40;99.90;;;;;;4949235;28;20455;-77
2022/08/30 09:26:33;;;;;;;4.43;4.00;;;26.40;99.90;;;;;;4941446;28;20494;-77
2022/08/30 09:29:01;;;;;;;4.23;3.83;;;26.40;99.90;;;;;;4940498;28;20544;-73
2022/08/30 09:31:31;;;;;;;3.80;3.50;;;26.50;99.90;;;;;;4942872;28;20461;-76
2022/08/30 09:34:02;;;;;;;4.13;3.73;;;26.50;99.90;;;;;;4950456;28;20506;-76
2022/08/30 09:36:42;;;;;;;3.87;3.50;;;26.50;99.90;;;;;;4940353;28;20534;-78
2022/08/30 09:39:17;;;;;;;3.93;3.50;;;26.50;99.90;;;;;;4940201;28;20479;-77
2022/08/30 09:41:48;;;;;;;6.43;3.93;;;26.60;99.90;;;;;;4938593;28;20480;-79
2022/08/30 09:44:19;;;;;;;4.07;3.53;;;26.60;99.90;;;;;;4937589;28;20460;-76
2022/08/30 09:46:50;;;;;;;4.10;3.40;;;26.70;99.90;;;;;;4938769;28;20471;-76
2022/08/30 09:49:38;;;;;;;4.20;3.80;;;26.70;99.90;;;;;;4945643;28;20464;-77
2022/08/30 09:52:32;;;;;;;4.10;3.70;;;26.70;99.90;;;;;;4943322;28;20463;-77
2022/08/30 09:55:14;;;;;;;3.57;3.23;;;26.80;99.90;;;;;;4942330;28;20507;-76
2022/08/30 09:57:54;;;;;;;4.00;3.37;;;26.80;99.90;;;;;;4941688;28;20466;-73
2022/08/30 10:00:27;;;;;;;3.50;3.30;;;26.80;99.90;;;;;;4942180;28;20490;-76
2022/08/30 10:03:06;;;;;;;4.53;4.23;;;26.90;99.90;;;;;;4943806;28;20448;-78
2022/08/30 10:05:43;;;;;;;3.70;3.37;;;27.00;99.90;;;;;;4947357;28;20476;-76
2022/08/30 10:08:18;;;;;;;3.30;3.10;;;27.00;99.90;;;;;;4944700;28;20542;-77
2022/08/30 10:10:51;;;;;;;3.97;3.57;;;27.00;99.90;;;;;;4946101;28;20459;-77
2022/08/30 10:13:42;;;;;;;3.27;2.97;;;27.10;99.90;;;;;;4946987;28;20483;-76
2022/08/30 10:16:21;;;;;;;3.77;3.43;;;27.10;99.90;;;;;;4941722;28;20479;-76
2022/08/30 10:19:02;;;;;;;4.50;4.10;;;27.00;99.90;;;;;;4942400;28;20538;-78
2022/08/30 10:21:38;;;;;;;4.50;3.40;;;27.10;99.90;;;;;;4948048;28;20457;-76
2022/08/30 10:24:10;;;;;;;5.67;2.90;;;27.10;99.90;;;;;;4951522;28;20559;-76
2022/08/30 10:26:45;;;;;;;3.43;3.17;;;27.20;99.90;;;;;;4945182;28;20497;-77
2022/08/30 10:29:19;;;;;;;3.60;3.30;;;27.20;99.90;;;;;;4943982;28;20471;-77
2022/08/30 10:31:53;;;;;;;4.03;3.73;;;27.20;99.90;;;;;;4934596;28;20504;-76
2022/08/30 10:34:26;;;;;;;3.90;3.60;;;27.30;99.90;;;;;;4945708;28;20891;-76
2022/08/30 10:37:00;;;;;;;3.77;3.47;;;27.30;99.90;;;;;;4946553;28;20483;-75
2022/08/30 10:39:33;;;;;;;3.90;3.60;;;27.30;99.90;;;;;;4937836;28;20516;-76
2022/08/30 10:42:08;;;;;;;3.00;2.80;;;27.40;99.90;;;;;;4941428;28;20460;-75
2022/08/30 10:44:43;;;;;;;3.73;3.43;;;27.40;99.90;;;;;;4940369;28;20922;-76
2022/08/30 10:47:21;;;;;;;5.40;3.27;;;27.40;99.90;;;;;;4937296;28;20464;-77
2022/08/30 10:49:57;;;;;;;3.43;3.20;;;27.40;99.90;;;;;;4948662;28;20456;-79
2022/08/30 10:52:31;;;;;;;3.47;3.27;;;27.40;99.90;;;;;;4946358;28;20514;-79
2022/08/30 10:55:02;;;;;;;3.50;3.30;;;27.50;99.90;;;;;;4947903;28;20550;-78
2022/08/30 10:57:30;;;;;;;3.27;3.07;;;27.50;99.90;;;;;;4946463;28;20463;-76
2022/08/30 11:00:04;;;;;;;3.30;2.90;;;27.60;99.90;;;;;;4948255;28;20514;-77
2022/08/30 11:03:06;;;;;;;3.67;3.37;;;27.60;99.90;;;;;;4939205;28;20462;-74
2022/08/30 11:05:54;;;;;;;3.20;3.00;;;27.60;99.90;;;;;;4942525;28;20547;-75
2022/08/30 11:08:37;;;;;;;3.80;3.13;;;27.60;99.90;;;;;;4945585;28;20456;-77
2022/08/30 11:11:16;;;;;;;3.37;3.10;;;27.60;99.90;;;;;;4949057;28;20983;-76
2022/08/30 11:13:46;;;;;;;3.43;3.23;;;27.60;99.90;;;;;;4946817;28;20456;-76
2022/08/30 11:16:18;;;;;;;3.50;3.00;;;27.70;99.90;;;;;;4941723;28;20477;-77
2022/08/30 11:18:50;;;;;;;3.50;3.20;;;27.70;99.90;;;;;;4945455;28;21039;-78
2022/08/30 11:21:31;;;;;;;3.03;2.83;;;27.70;99.90;;;;;;4943892;28;20491;-79
2022/08/30 11:24:02;;;;;;;3.50;3.30;;;27.70;99.90;;;;;;4952279;28;20955;-78
2022/08/30 11:26:59;;;;;;;3.70;3.40;;;27.70;99.90;;;;;;4952582;28;20501;-77
2022/08/30 11:29:39;;;;;;;3.00;2.80;;;27.70;99.90;;;;;;4948653;28;20594;-77
2022/08/30 11:32:38;;;;;;;3.50;3.30;;;27.70;99.90;;;;;;4946029;28;20539;-77
2022/08/30 11:35:07;;;;;;;3.63;3.10;;;27.70;99.90;;;;;;4926248;28;20503;-79
2022/08/30 11:37:41;;;;;;;3.03;2.73;;;27.70;99.90;;;;;;4951474;28;20460;-77
2022/08/30 11:40:47;;;;;;;3.17;2.97;;;27.70;99.90;;;;;;4944443;28;20480;-78
2022/08/30 11:43:50;;;;;;;3.67;3.37;;;27.70;99.90;;;;;;4948633;28;20460;-77
2022/08/30 11:46:35;;;;;;;4.10;3.80;;;27.70;99.90;;;;;;4952100;28;20508;-77
2022/08/30 11:49:25;;;;;;;2.83;2.63;;;27.70;99.90;;;;;;4952326;28;20459;-75
2022/08/30 11:52:14;;;;;;;4.80;3.70;;;27.70;99.90;;;;;;4948742;28;20464;-76
2022/08/30 11:55:22;;;;;;;3.17;2.97;;;27.70;99.90;;;;;;4946248;28;20559;-77
2022/08/30 11:57:57;;;;;;;3.60;3.30;;;27.70;99.90;;;;;;4927880;28;20539;-77
2022/08/30 12:00:34;;;;;;;3.37;3.10;;;27.70;99.90;;;;;;4948720;28;20507;-77
2022/08/30 12:03:04;;;;;;;3.17;2.97;;;27.70;99.90;;;;;;4948459;28;20465;-77
2022/08/30 12:05:57;;;;;;;2.77;2.57;;;27.70;99.90;;;;;;4941925;28;20484;-76
2022/08/30 12:08:54;;;;;;;3.47;3.23;;;27.70;99.90;;;;;;4948116;28;21065;-76
2022/08/30 12:12:01;;;;;;;3.07;2.87;;;27.70;99.90;;;;;;4947022;28;20458;-76
2022/08/30 12:14:46;;;;;;;3.30;3.10;;;27.70;99.90;;;;;;4952183;28;20949;-76
2022/08/30 12:20:24;;;;;;;3.50;3.20;;;27.80;99.90;;;;;;4947200;28;20884;-77
2022/08/30 12:22:55;;;;;;;3.37;3.17;;;27.70;99.90;;;;;;4947694;28;20498;-78
2022/08/30 12:25:31;;;;;;;4.93;4.53;;;27.80;99.90;;;;;;4943773;28;21000;-76
2022/08/30 12:28:11;;;;;;;3.90;3.60;;;27.80;99.90;;;;;;4949927;28;20463;-77
2022/08/30 12:30:39;;;;;;;3.80;3.50;;;27.80;99.90;;;;;;4953888;28;20465;-81
2022/08/30 12:33:12;;;;;;;3.93;3.50;;;27.80;99.90;;;;;;4952572;28;20560;-81
2022/08/30 12:35:42;;;;;;;3.87;3.50;;;27.80;99.90;;;;;;4945465;28;21306;-83
2022/08/30 12:38:20;;;;;;;3.93;3.60;;;27.80;99.90;;;;;;4943034;28;20940;-83
2022/08/30 12:40:58;;;;;;;3.20;2.90;;;27.80;99.90;;;;;;4950029;28;20484;-81
2022/08/30 12:43:30;;;;;;;3.33;3.13;;;27.80;99.90;;;;;;4941134;28;20503;-81
2022/08/30 12:46:12;;;;;;;2.97;2.77;;;27.80;99.90;;;;;;4950383;28;20477;-83
2022/08/30 12:48:43;;;;;;;3.37;3.17;;;27.80;99.90;;;;;;4951308;28;20452;-83
2022/08/30 12:51:35;;;;;;;3.63;3.33;;;27.90;99.90;;;;;;4968899;28;20452;-83
2022/08/30 12:54:08;;;;;;;3.00;2.80;;;27.80;99.90;;;;;;4947979;28;20810;-82
2022/08/30 12:57:02;;;;;;;3.20;3.00;;;27.90;99.90;;;;;;4960137;28;20530;-81
2022/08/30 12:59:52;;;;;;;2.83;2.63;;;27.80;99.90;;;;;;4939591;28;21062;-81
2022/08/30 13:02:41;;;;;;;4.60;3.27;;;27.90;99.90;;;;;;4941907;28;20508;-82
2022/08/30 13:05:42;;;;;;;4.07;3.77;;;27.90;99.90;;;;;;4946902;28;20705;-82
2022/08/30 13:08:18;;;;;;;3.60;3.30;;;27.90;99.90;;;;;;4943634;28;20460;-81
2022/08/30 13:10:57;;;;;;;5.80;4.17;;;27.90;99.90;;;;;;4948395;28;20447;-80
2022/08/30 13:13:30;;;;;;;3.43;3.20;;;28.00;99.90;;;;;;4956743;28;20473;-81
2022/08/30 13:16:08;;;;;;;3.30;3.10;;;28.00;99.90;;;;;;4949209;28;20483;-82
2022/08/30 13:18:37;;;;;;;3.20;3.00;;;28.00;99.90;;;;;;4946000;28;20834;-82
2022/08/30 13:21:25;;;;;;;3.60;3.30;;;28.00;99.90;;;;;;4952012;28;20500;-81
2022/08/30 13:23:57;;;;;;;4.10;3.70;;;27.90;99.90;;;;;;4945895;28;20827;-81
2022/08/30 13:26:30;;;;;;;2.90;2.70;;;28.00;99.90;;;;;;4953601;28;20482;-82